createdAt,value
2017-11-30T00:02:18.905Z,90.20
2017-11-30T00:04:53.550Z,90.10
2017-11-30T00:07:28.229Z,90.00
2017-11-30T00:10:01.882Z,90.00
2017-11-30T00:12:43.377Z,90.00
2017-11-30T00:15:16.990Z,90.10
2017-11-30T00:17:50.687Z,90.00
2017-11-30T00:20:24.468Z,90.10
2017-11-30T00:22:58.378Z,90.10
2017-11-30T00:25:32.116Z,90.10
2017-11-30T00:28:05.882Z,90.10
2017-11-30T00:30:39.591Z,90.10
2017-11-30T00:33:15.375Z,90.20
2017-11-30T00:35:50.371Z,90.10
2017-11-30T00:38:26.078Z,90.20
2017-11-30T00:40:59.770Z,90.20
2017-11-30T00:43:34.310Z,90.10
2017-11-30T00:46:07.997Z,90.00
2017-11-30T00:48:45.170Z,90.00
2017-11-30T00:51:18.801Z,89.90
2017-11-30T00:53:52.653Z,89.80
2017-11-30T00:56:26.374Z,89.80
2017-11-30T00:59:00.112Z,89.60
2017-11-30T01:01:33.896Z,89.60
2017-11-30T01:04:07.545Z,89.80
2017-11-30T01:06:41.312Z,89.70
2017-11-30T01:09:14.878Z,89.40
2017-11-30T01:11:48.649Z,89.50
2017-11-30T01:14:22.420Z,89.30
2017-11-30T01:16:57.083Z,89.50
2017-11-30T01:19:31.631Z,89.30
2017-11-30T01:22:05.452Z,89.30
2017-11-30T01:24:39.319Z,89.40
2017-11-30T01:27:13.088Z,89.70
2017-11-30T01:29:46.764Z,90.00
2017-11-30T01:32:20.400Z,89.80
2017-11-30T01:34:54.218Z,89.80
2017-11-30T01:37:27.868Z,89.80
2017-11-30T01:40:01.614Z,89.80
2017-11-30T01:42:35.300Z,89.60
2017-11-30T01:45:09.123Z,89.60
2017-11-30T01:47:42.974Z,89.40
2017-11-30T01:50:16.794Z,89.50
2017-11-30T01:52:50.572Z,89.30
2017-11-30T01:55:25.147Z,89.20
2017-11-30T01:57:58.978Z,89.10
2017-11-30T02:00:33.699Z,90.10
2017-11-30T02:03:07.461Z,89.50
2017-11-30T02:05:42.858Z,89.90
2017-11-30T02:08:16.648Z,89.90
2017-11-30T02:10:50.454Z,90.00
2017-11-30T02:13:24.825Z,90.00
2017-11-30T02:15:58.525Z,90.00
2017-11-30T02:18:32.249Z,90.00
2017-11-30T02:21:05.973Z,90.10
2017-11-30T02:23:39.580Z,90.10
2017-11-30T02:26:13.364Z,90.00
2017-11-30T02:28:47.179Z,90.10
2017-11-30T02:31:21.001Z,90.20
2017-11-30T02:33:54.858Z,90.20
2017-11-30T02:36:28.737Z,90.50
2017-11-30T02:39:02.607Z,90.30
2017-11-30T02:41:37.839Z,90.30
2017-11-30T02:44:11.555Z,90.30
2017-11-30T02:46:45.324Z,90.40
2017-11-30T02:49:19.123Z,90.40
2017-11-30T02:51:52.907Z,90.30
2017-11-30T02:54:26.670Z,90.20
2017-11-30T02:57:01.221Z,90.20
2017-11-30T02:59:34.799Z,90.20
2017-11-30T03:02:09.445Z,90.30
2017-11-30T03:04:43.104Z,90.10
2017-11-30T03:07:16.816Z,90.10
2017-11-30T03:09:51.372Z,90.20
2017-11-30T03:12:25.209Z,90.10
2017-11-30T03:14:58.925Z,90.10
2017-11-30T03:17:32.797Z,90.20
2017-11-30T03:20:06.435Z,90.20
2017-11-30T03:22:40.243Z,90.10
2017-11-30T03:25:14.002Z,90.00
2017-11-30T03:27:47.766Z,90.30
2017-11-30T03:30:21.417Z,90.00
2017-11-30T03:32:55.201Z,90.00
2017-11-30T03:35:29.026Z,90.00
2017-11-30T03:38:02.632Z,90.10
2017-11-30T03:40:36.414Z,90.00
2017-11-30T03:43:10.239Z,90.00
2017-11-30T03:45:44.045Z,90.10
2017-11-30T03:48:17.929Z,90.10
2017-11-30T03:50:52.543Z,90.00
2017-11-30T03:53:26.422Z,90.10
2017-11-30T03:56:00.165Z,90.10
2017-11-30T03:58:33.996Z,90.10
2017-11-30T04:01:07.840Z,90.30
2017-11-30T04:03:41.552Z,89.80
2017-11-30T04:06:16.206Z,89.60
2017-11-30T04:08:50.829Z,89.20
2017-11-30T04:11:24.573Z,89.30
2017-11-30T04:13:58.411Z,89.20
2017-11-30T04:16:32.932Z,89.00
2017-11-30T04:19:06.619Z,89.00
2017-11-30T04:21:41.144Z,89.10
2017-11-30T04:24:14.898Z,89.00
2017-11-30T04:26:48.629Z,89.00
2017-11-30T04:29:22.422Z,89.00
2017-11-30T04:31:56.908Z,89.10
2017-11-30T04:34:30.489Z,89.10
2017-11-30T04:37:04.307Z,89.10
2017-11-30T04:39:38.549Z,89.20
2017-11-30T04:42:12.305Z,89.00
2017-11-30T04:44:46.883Z,90.00
2017-11-30T04:47:20.603Z,89.20
2017-11-30T04:49:54.350Z,89.20
2017-11-30T04:52:28.162Z,89.10
2017-11-30T04:55:01.921Z,88.70
2017-11-30T04:57:35.666Z,88.40
2017-11-30T05:00:09.528Z,88.00
2017-11-30T05:02:44.123Z,88.00
2017-11-30T05:05:18.031Z,87.40
2017-11-30T05:07:52.338Z,86.40
2017-11-30T05:10:26.728Z,86.30
2017-11-30T05:13:01.439Z,86.20
2017-11-30T05:15:35.139Z,86.20
2017-11-30T05:18:08.854Z,86.40
2017-11-30T05:20:42.884Z,86.50
2017-11-30T05:23:16.736Z,86.40
2017-11-30T05:25:50.620Z,86.00
2017-11-30T05:28:24.480Z,86.00
2017-11-30T05:30:58.364Z,85.90
2017-11-30T05:33:32.170Z,86.20
2017-11-30T05:36:05.971Z,86.10
2017-11-30T05:38:39.779Z,86.10
2017-11-30T05:41:13.624Z,85.50
2017-11-30T05:43:48.098Z,85.60
2017-11-30T05:46:21.941Z,85.50
2017-11-30T05:48:55.608Z,85.60
2017-11-30T05:51:29.454Z,85.60
2017-11-30T05:54:06.462Z,85.60
2017-11-30T05:56:40.164Z,85.60
2017-11-30T05:59:13.915Z,85.00
2017-11-30T06:01:47.658Z,84.80
2017-11-30T06:04:21.383Z,85.50
2017-11-30T06:06:56.935Z,85.10
2017-11-30T06:12:10.955Z,84.70
2017-11-30T06:14:44.764Z,85.00
2017-11-30T06:17:19.635Z,84.80
2017-11-30T06:19:54.414Z,84.80
2017-11-30T06:22:29.141Z,84.30
2017-11-30T06:25:03.191Z,84.30
2017-11-30T06:27:36.973Z,83.80
2017-11-30T06:30:10.766Z,83.30
2017-11-30T06:32:44.683Z,83.80
2017-11-30T06:35:18.345Z,83.70
2017-11-30T06:37:52.278Z,83.80
2017-11-30T06:40:26.949Z,84.10
2017-11-30T06:43:00.627Z,83.50
2017-11-30T06:45:34.474Z,83.20
2017-11-30T06:48:08.293Z,83.00
2017-11-30T06:50:42.143Z,83.00
2017-11-30T06:53:15.905Z,83.30
2017-11-30T06:55:49.617Z,83.60
2017-11-30T06:58:23.301Z,84.10
2017-11-30T07:00:57.824Z,84.80
2017-11-30T07:03:31.649Z,84.80
2017-11-30T07:06:05.446Z,85.40
2017-11-30T07:08:39.208Z,85.80
2017-11-30T07:11:12.974Z,86.00
2017-11-30T07:13:46.776Z,86.00
2017-11-30T07:16:24.262Z,86.70
2017-11-30T07:18:57.973Z,86.80
2017-11-30T07:21:31.888Z,87.10
2017-11-30T07:24:05.524Z,87.50
2017-11-30T07:26:40.114Z,86.90
2017-11-30T07:29:15.255Z,86.30
2017-11-30T07:31:49.058Z,86.40
2017-11-30T07:34:23.501Z,86.30
2017-11-30T07:36:57.064Z,86.30
2017-11-30T07:39:30.905Z,86.20
2017-11-30T07:42:06.541Z,85.30
2017-11-30T07:44:40.350Z,85.30
2017-11-30T07:47:13.972Z,85.30
2017-11-30T07:49:47.936Z,84.70
2017-11-30T07:52:23.743Z,84.40
2017-11-30T07:54:58.390Z,83.60
2017-11-30T07:57:32.294Z,83.60
2017-11-30T08:00:06.011Z,83.20
2017-11-30T08:02:39.828Z,83.30
2017-11-30T08:05:13.742Z,82.30
2017-11-30T08:07:47.384Z,82.30
2017-11-30T08:10:21.209Z,82.70
2017-11-30T08:12:54.953Z,82.30
2017-11-30T08:15:28.650Z,82.10
2017-11-30T08:21:02.955Z,81.50
2017-11-30T08:26:36.566Z,81.60
2017-11-30T08:29:10.174Z,81.60
2017-11-30T08:31:43.920Z,81.40
2017-11-30T08:34:17.749Z,81.30
2017-11-30T08:36:52.337Z,80.90
2017-11-30T08:39:26.102Z,80.80
2017-11-30T08:42:00.911Z,81.50
2017-11-30T08:44:34.598Z,81.10
2017-11-30T08:47:08.385Z,81.00
2017-11-30T08:49:42.058Z,80.60
2017-11-30T08:52:15.831Z,81.00
2017-11-30T08:54:49.670Z,80.90
2017-11-30T08:57:23.374Z,80.70
2017-11-30T08:59:56.961Z,80.40
2017-11-30T09:02:30.730Z,79.90
2017-11-30T09:05:05.351Z,80.10
2017-11-30T09:07:39.257Z,80.10
2017-11-30T09:10:12.948Z,79.40
2017-11-30T09:12:46.729Z,79.30
2017-11-30T09:15:21.338Z,78.80
2017-11-30T09:17:55.922Z,79.00
2017-11-30T09:20:29.801Z,78.90
2017-11-30T09:23:03.593Z,79.00
2017-11-30T09:25:37.331Z,79.10
2017-11-30T09:28:11.145Z,79.20
2017-11-30T09:30:44.852Z,78.50
2017-11-30T09:33:19.873Z,77.90
2017-11-30T09:35:53.707Z,77.80
2017-11-30T09:38:27.489Z,78.00
2017-11-30T09:41:01.198Z,77.40
2017-11-30T09:43:36.640Z,77.10
2017-11-30T09:46:11.434Z,76.60
2017-11-30T09:48:45.978Z,76.00
2017-11-30T09:51:19.863Z,76.00
2017-11-30T09:53:53.802Z,75.40
2017-11-30T09:56:28.092Z,75.10
2017-11-30T09:59:02.169Z,76.00
2017-11-30T10:01:36.562Z,74.00
2017-11-30T10:04:10.469Z,74.20
2017-11-30T10:06:45.447Z,74.20
2017-11-30T10:09:19.770Z,74.50
2017-11-30T10:11:53.628Z,74.30
2017-11-30T10:14:27.351Z,73.40
2017-11-30T10:17:01.082Z,72.60
2017-11-30T10:19:35.989Z,73.60
2017-11-30T10:22:09.634Z,72.20
2017-11-30T10:24:44.213Z,68.70
2017-11-30T10:27:17.815Z,68.70
2017-11-30T10:30:00.775Z,68.20
2017-11-30T10:32:34.519Z,67.00
2017-11-30T10:35:09.070Z,67.50
2017-11-30T10:37:42.637Z,67.30
2017-11-30T10:40:16.402Z,68.10
2017-11-30T10:42:51.169Z,68.80
2017-11-30T10:45:25.282Z,68.90
2017-11-30T10:47:59.088Z,68.10
2017-11-30T10:50:33.663Z,68.00
2017-11-30T10:53:08.089Z,65.60
2017-11-30T10:55:41.894Z,65.60
2017-11-30T10:58:16.552Z,64.60
2017-11-30T11:00:51.159Z,64.60
2017-11-30T11:03:24.788Z,64.70
2017-11-30T11:05:58.549Z,64.30
2017-11-30T11:08:33.173Z,63.70
2017-11-30T11:11:06.937Z,63.60
2017-11-30T11:13:40.646Z,62.80
2017-11-30T11:16:15.259Z,63.80
2017-11-30T11:18:49.071Z,63.80
2017-11-30T11:21:22.954Z,65.70
2017-11-30T11:23:57.532Z,64.60
2017-11-30T11:26:31.804Z,64.50
2017-11-30T11:29:08.653Z,64.20
2017-11-30T11:31:43.631Z,64.20
2017-11-30T11:34:17.496Z,64.30
2017-11-30T11:36:53.237Z,65.20
2017-11-30T11:39:27.808Z,65.00
2017-11-30T11:42:04.492Z,64.70
2017-11-30T11:44:41.819Z,64.60
2017-11-30T11:47:16.856Z,64.60
2017-11-30T11:49:51.681Z,65.00
2017-11-30T11:52:26.521Z,64.70
2017-11-30T11:55:00.838Z,63.80
2017-11-30T11:57:35.426Z,63.90
2017-11-30T12:00:14.151Z,64.90
2017-11-30T12:02:49.278Z,65.00
2017-11-30T12:05:23.033Z,65.00
2017-11-30T12:07:58.063Z,63.60
2017-11-30T12:10:32.034Z,64.10
2017-11-30T12:13:05.981Z,64.50
2017-11-30T12:15:39.804Z,63.80
2017-11-30T12:18:13.506Z,64.20
2017-11-30T12:20:48.576Z,64.50
2017-11-30T12:23:23.222Z,64.30
2017-11-30T12:26:01.029Z,65.30
2017-11-30T12:28:35.731Z,65.70
2017-11-30T12:31:09.758Z,66.00
2017-11-30T12:33:43.681Z,65.40
2017-11-30T12:36:18.465Z,65.50
2017-11-30T12:38:52.245Z,66.00
2017-11-30T12:41:27.608Z,66.20
2017-11-30T12:44:01.662Z,66.00
2017-11-30T12:46:36.960Z,66.40
2017-11-30T12:49:10.910Z,66.40
2017-11-30T12:51:45.739Z,67.00
2017-11-30T12:54:19.694Z,67.00
2017-11-30T12:56:54.335Z,67.20
2017-11-30T12:59:28.931Z,66.80
2017-11-30T13:02:03.493Z,67.20
2017-11-30T13:04:37.088Z,67.20
2017-11-30T13:07:11.094Z,66.90
2017-11-30T13:09:44.906Z,67.40
2017-11-30T13:12:18.802Z,67.70
2017-11-30T13:14:55.371Z,67.90
2017-11-30T13:17:29.136Z,67.90
2017-11-30T13:20:02.901Z,67.30
2017-11-30T13:22:36.737Z,67.30
2017-11-30T13:25:11.422Z,67.30
2017-11-30T13:27:45.176Z,67.80
2017-11-30T13:30:20.587Z,68.10
2017-11-30T13:32:54.539Z,68.10
2017-11-30T13:35:29.185Z,67.70
2017-11-30T13:38:04.710Z,68.10
2017-11-30T13:40:39.417Z,68.30
2017-11-30T13:43:14.112Z,68.60
2017-11-30T13:45:48.417Z,68.10
2017-11-30T13:48:22.774Z,67.10
2017-11-30T13:50:56.407Z,67.10
2017-11-30T13:53:33.830Z,67.00
2017-11-30T13:56:09.730Z,67.80
2017-11-30T13:58:43.483Z,67.80
2017-11-30T14:01:19.744Z,68.60
2017-11-30T14:03:54.550Z,68.10
2017-11-30T14:06:28.385Z,68.10
2017-11-30T14:09:03.256Z,68.70
2017-11-30T14:11:40.818Z,68.00
2017-11-30T14:14:15.350Z,68.20
2017-11-30T14:16:51.737Z,68.40
2017-11-30T14:19:28.307Z,68.50
2017-11-30T14:22:02.045Z,68.50
2017-11-30T14:24:35.886Z,68.90
2017-11-30T14:27:10.343Z,69.10
2017-11-30T14:29:44.466Z,69.10
2017-11-30T14:32:18.090Z,69.40
2017-11-30T14:34:52.824Z,69.60
2017-11-30T14:37:26.504Z,69.60
2017-11-30T14:40:00.339Z,69.70
2017-11-30T14:42:34.931Z,70.10
2017-11-30T14:45:08.688Z,69.70
2017-11-30T14:47:42.500Z,69.70
2017-11-30T14:50:16.359Z,70.20
2017-11-30T14:52:52.040Z,70.20
2017-11-30T14:55:28.156Z,70.80
2017-11-30T14:58:01.968Z,70.70
2017-11-30T15:00:37.516Z,70.80
2017-11-30T15:03:11.277Z,70.80
2017-11-30T15:05:45.111Z,70.80
2017-11-30T15:08:18.876Z,70.70
2017-11-30T15:10:54.602Z,71.20
2017-11-30T15:13:29.108Z,70.70
2017-11-30T15:16:02.921Z,70.70
2017-11-30T15:18:38.247Z,70.60
2017-11-30T15:21:11.910Z,71.20
2017-11-30T15:23:48.766Z,71.30
2017-11-30T15:26:22.916Z,71.30
2017-11-30T15:28:57.520Z,70.80
2017-11-30T15:34:13.430Z,71.30
2017-11-30T15:36:47.550Z,71.20
2017-11-30T15:39:21.382Z,70.70
2017-11-30T15:41:55.162Z,71.10
2017-11-30T15:44:29.222Z,70.60
2017-11-30T15:47:03.033Z,71.00
2017-11-30T15:49:37.418Z,71.40
2017-11-30T15:52:11.269Z,71.40
2017-11-30T15:54:45.098Z,71.40
2017-11-30T15:57:18.953Z,70.80
2017-11-30T15:59:52.778Z,71.70
2017-11-30T16:02:27.442Z,72.20
2017-11-30T16:05:01.980Z,72.20
2017-11-30T16:07:36.040Z,72.20
2017-11-30T16:10:14.366Z,72.30
2017-11-30T16:12:49.839Z,72.10
2017-11-30T16:15:23.678Z,72.10
2017-11-30T16:17:57.348Z,72.40
2017-11-30T16:20:31.210Z,72.70
2017-11-30T16:23:04.950Z,73.00
2017-11-30T16:25:41.516Z,73.10
2017-11-30T16:28:15.208Z,72.70
2017-11-30T16:30:48.985Z,72.90
2017-11-30T16:33:23.643Z,72.90
2017-11-30T16:35:57.316Z,73.00
2017-11-30T16:38:32.099Z,73.00
2017-11-30T16:41:05.779Z,73.20
2017-11-30T16:43:39.643Z,73.10
2017-11-30T16:46:13.881Z,73.20
2017-11-30T16:48:47.819Z,73.40
2017-11-30T16:51:21.772Z,73.80
2017-11-30T16:53:55.441Z,74.00
2017-11-30T16:56:29.397Z,74.30
2017-11-30T16:59:03.036Z,74.00
2017-11-30T17:01:36.844Z,73.50
2017-11-30T17:04:12.713Z,73.60
2017-11-30T17:06:49.633Z,73.50
2017-11-30T17:12:12.629Z,73.10
2017-11-30T17:14:50.325Z,73.20
2017-11-30T17:17:25.397Z,73.30
2017-11-30T17:19:59.157Z,73.80
2017-11-30T17:22:35.760Z,74.60
2017-11-30T17:25:09.938Z,74.80
2017-11-30T17:27:43.672Z,74.60
2017-11-30T17:30:18.475Z,75.00
2017-11-30T17:32:52.226Z,75.00
2017-11-30T17:35:28.575Z,74.60
2017-11-30T17:38:02.456Z,74.60
2017-11-30T17:43:41.128Z,75.00
2017-11-30T17:46:16.437Z,73.30
2017-11-30T17:48:53.855Z,73.70
2017-11-30T17:51:30.431Z,73.70
2017-11-30T17:54:07.824Z,73.50
2017-11-30T17:56:43.883Z,73.30
2017-11-30T17:59:21.020Z,73.80
2017-11-30T18:01:55.726Z,73.20
2017-11-30T18:04:31.958Z,73.70
2017-11-30T18:07:07.331Z,73.40
2017-11-30T18:09:46.905Z,73.50
2017-11-30T18:12:25.547Z,73.00
2017-11-30T18:15:01.156Z,73.20
2017-11-30T18:17:36.487Z,73.00
2017-11-30T18:20:11.879Z,72.90
2017-11-30T18:22:45.745Z,72.90
2017-11-30T18:25:22.707Z,73.20
2017-11-30T18:28:01.412Z,73.20
2017-11-30T18:30:35.989Z,73.20
2017-11-30T18:33:11.935Z,73.20
2017-11-30T18:35:49.112Z,73.20
2017-11-30T18:38:26.151Z,73.30
2017-11-30T18:41:02.064Z,73.00
2017-11-30T18:43:38.324Z,72.60
2017-11-30T18:48:52.276Z,72.60
2017-11-30T18:51:26.120Z,72.90
2017-11-30T18:54:04.539Z,73.50
2017-11-30T18:56:38.529Z,73.50
2017-11-30T18:59:12.405Z,73.30
2017-11-30T19:01:46.110Z,73.80
2017-11-30T19:04:20.306Z,74.10
2017-11-30T19:06:55.000Z,74.20
2017-11-30T19:09:28.692Z,74.50
2017-11-30T19:12:02.654Z,74.30
2017-11-30T19:14:37.486Z,74.40
2017-11-30T19:17:12.192Z,74.40
2017-11-30T19:19:46.966Z,74.30
2017-11-30T19:22:22.479Z,74.30
2017-11-30T19:24:56.202Z,74.30
2017-11-30T19:27:30.007Z,74.40
2017-11-30T19:30:06.068Z,74.20
2017-11-30T19:32:42.258Z,74.10
2017-11-30T19:35:16.942Z,74.20
2017-11-30T19:37:50.528Z,74.50
2017-11-30T19:43:10.231Z,74.70
2017-11-30T19:51:05.816Z,74.70
2017-11-30T19:53:39.909Z,75.00
2017-11-30T19:56:13.793Z,75.30
2017-11-30T19:58:48.955Z,75.40
2017-11-30T20:01:25.519Z,75.50
2017-11-30T20:06:53.500Z,75.50
2017-11-30T20:09:30.659Z,75.80
2017-11-30T20:12:08.034Z,75.70
2017-11-30T20:14:44.803Z,75.50
2017-11-30T20:17:25.515Z,75.50
2017-11-30T20:20:01.776Z,75.40
2017-11-30T20:22:39.643Z,75.10
2017-11-30T20:25:17.075Z,75.20
2017-11-30T21:07:32.214Z,75.20
2017-11-30T21:16:24.386Z,75.30
2017-11-30T21:21:45.641Z,75.20
2017-11-30T21:30:22.626Z,75.40
2017-11-30T21:48:01.389Z,75.70
2017-11-30T21:59:22.568Z,76.00
2017-11-30T22:01:56.366Z,76.30
2017-11-30T22:04:36.343Z,76.50
2017-11-30T22:10:23.075Z,77.00
2017-11-30T22:13:17.517Z,77.30
2017-11-30T22:22:12.175Z,78.00
2017-11-30T22:24:50.707Z,78.30
2017-11-30T22:27:30.512Z,78.30
2017-11-30T22:30:09.296Z,78.30
2017-11-30T22:35:28.480Z,78.90
2017-11-30T22:38:06.962Z,79.10
2017-11-30T22:41:03.829Z,79.10
2017-11-30T22:49:45.883Z,79.50
2017-11-30T22:52:23.922Z,79.60
2017-11-30T22:54:58.772Z,79.70
2017-11-30T23:00:18.134Z,79.70
2017-11-30T23:02:51.972Z,79.80
2017-11-30T23:10:44.185Z,79.10
2017-11-30T23:18:44.325Z,78.50
2017-11-30T23:21:19.943Z,78.60
2017-11-30T23:23:55.255Z,78.50
2017-11-30T23:29:12.710Z,78.50
2017-11-30T23:31:50.114Z,78.60
2017-11-30T23:34:26.998Z,78.60
2017-11-30T23:45:05.977Z,78.50
2017-11-30T23:47:41.683Z,78.30
2017-11-30T23:52:58.647Z,78.20
2017-11-30T23:55:33.455Z,78.60
2017-11-30T23:58:15.780Z,78.60
